sensor_id;sensor_type;location;lat;lon;timestamp;P1;durP1;ratioP1;P2;durP2;ratioP2
37595;SDS011;23442;48.182;11.552;2022-07-22T00:01:47;24.17;;;14.10;;
37595;SDS011;23442;48.182;11.552;2022-07-22T00:04:14;24.92;;;14.45;;
37595;SDS011;23442;48.182;11.552;2022-07-22T00:06:41;24.20;;;14.23;;
37595;SDS011;23442;48.182;11.552;2022-07-22T00:09:08;25.92;;;14.02;;
37595;SDS011;23442;48.182;11.552;2022-07-22T00:11:34;17.33;;;12.65;;
37595;SDS011;23442;48.182;11.552;2022-07-22T00:14:01;26.70;;;14.70;;
37595;SDS011;23442;48.182;11.552;2022-07-22T00:16:27;28.95;;;14.40;;
37595;SDS011;23442;48.182;11.552;2022-07-22T00:18:53;29.13;;;14.82;;
37595;SDS011;23442;48.182;11.552;2022-07-22T00:21:22;26.23;;;12.73;;
37595;SDS011;23442;48.182;11.552;2022-07-22T00:23:48;34.83;;;14.63;;
37595;SDS011;23442;48.182;11.552;2022-07-22T00:26:14;19.95;;;12.65;;
37595;SDS011;23442;48.182;11.552;2022-07-22T00:28:44;22.90;;;13.00;;
37595;SDS011;23442;48.182;11.552;2022-07-22T00:31:10;28.52;;;14.50;;
37595;SDS011;23442;48.182;11.552;2022-07-22T00:33:36;23.23;;;13.75;;
37595;SDS011;23442;48.182;11.552;2022-07-22T00:36:03;26.00;;;13.63;;
37595;SDS011;23442;48.182;11.552;2022-07-22T00:38:31;27.58;;;13.75;;
37595;SDS011;23442;48.182;11.552;2022-07-22T00:40:57;21.83;;;12.63;;
37595;SDS011;23442;48.182;11.552;2022-07-22T00:43:23;19.55;;;12.32;;
37595;SDS011;23442;48.182;11.552;2022-07-22T00:45:49;24.45;;;13.50;;
37595;SDS011;23442;48.182;11.552;2022-07-22T00:48:16;24.23;;;13.40;;
37595;SDS011;23442;48.182;11.552;2022-07-22T00:50:42;17.30;;;11.82;;
37595;SDS011;23442;48.182;11.552;2022-07-22T00:53:08;21.52;;;13.05;;
37595;SDS011;23442;48.182;11.552;2022-07-22T00:55:35;23.25;;;13.18;;
37595;SDS011;23442;48.182;11.552;2022-07-22T00:58:02;20.90;;;12.27;;
37595;SDS011;23442;48.182;11.552;2022-07-22T01:00:28;29.50;;;14.35;;
37595;SDS011;23442;48.182;11.552;2022-07-22T01:02:55;22.17;;;13.00;;
37595;SDS011;23442;48.182;11.552;2022-07-22T01:05:24;27.65;;;14.75;;
37595;SDS011;23442;48.182;11.552;2022-07-22T01:07:52;18.67;;;12.35;;
37595;SDS011;23442;48.182;11.552;2022-07-22T01:10:18;25.38;;;14.32;;
37595;SDS011;23442;48.182;11.552;2022-07-22T01:12:45;31.88;;;22.40;;
37595;SDS011;23442;48.182;11.552;2022-07-22T01:15:11;24.45;;;15.13;;
37595;SDS011;23442;48.182;11.552;2022-07-22T01:17:37;21.08;;;13.35;;
37595;SDS011;23442;48.182;11.552;2022-07-22T01:20:04;25.65;;;13.77;;
37595;SDS011;23442;48.182;11.552;2022-07-22T01:22:31;22.30;;;13.65;;
37595;SDS011;23442;48.182;11.552;2022-07-22T01:24:57;24.52;;;13.75;;
37595;SDS011;23442;48.182;11.552;2022-07-22T01:27:23;21.20;;;13.38;;
37595;SDS011;23442;48.182;11.552;2022-07-22T01:29:50;24.80;;;13.43;;
37595;SDS011;23442;48.182;11.552;2022-07-22T01:32:16;27.65;;;13.18;;
37595;SDS011;23442;48.182;11.552;2022-07-22T01:34:42;23.38;;;13.43;;
37595;SDS011;23442;48.182;11.552;2022-07-22T01:37:08;27.20;;;14.20;;
37595;SDS011;23442;48.182;11.552;2022-07-22T01:39:35;24.55;;;13.05;;
37595;SDS011;23442;48.182;11.552;2022-07-22T01:42:01;25.58;;;13.57;;
37595;SDS011;23442;48.182;11.552;2022-07-22T01:44:31;26.67;;;13.90;;
37595;SDS011;23442;48.182;11.552;2022-07-22T01:46:57;21.52;;;12.45;;
37595;SDS011;23442;48.182;11.552;2022-07-22T01:49:24;21.20;;;12.20;;
37595;SDS011;23442;48.182;11.552;2022-07-22T01:51:50;27.17;;;14.07;;
37595;SDS011;23442;48.182;11.552;2022-07-22T01:54:16;22.08;;;12.27;;
37595;SDS011;23442;48.182;11.552;2022-07-22T01:56:42;22.17;;;13.13;;
37595;SDS011;23442;48.182;11.552;2022-07-22T01:59:08;28.33;;;13.65;;
37595;SDS011;23442;48.182;11.552;2022-07-22T02:01:34;26.30;;;13.63;;
37595;SDS011;23442;48.182;11.552;2022-07-22T02:04:01;23.40;;;13.25;;
37595;SDS011;23442;48.182;11.552;2022-07-22T02:06:27;30.13;;;14.35;;
37595;SDS011;23442;48.182;11.552;2022-07-22T02:08:55;31.85;;;14.73;;
37595;SDS011;23442;48.182;11.552;2022-07-22T02:11:22;21.95;;;12.43;;
37595;SDS011;23442;48.182;11.552;2022-07-22T02:13:48;24.05;;;13.27;;
37595;SDS011;23442;48.182;11.552;2022-07-22T02:16:14;26.25;;;13.15;;
37595;SDS011;23442;48.182;11.552;2022-07-22T02:18:40;23.08;;;12.70;;
37595;SDS011;23442;48.182;11.552;2022-07-22T02:21:06;33.33;;;15.80;;
37595;SDS011;23442;48.182;11.552;2022-07-22T02:23:32;25.75;;;13.27;;
37595;SDS011;23442;48.182;11.552;2022-07-22T02:25:59;35.90;;;15.73;;
37595;SDS011;23442;48.182;11.552;2022-07-22T02:28:25;18.67;;;12.25;;
37595;SDS011;23442;48.182;11.552;2022-07-22T02:30:51;23.95;;;12.82;;
37595;SDS011;23442;48.182;11.552;2022-07-22T02:33:17;20.08;;;11.93;;
37595;SDS011;23442;48.182;11.552;2022-07-22T02:35:43;19.63;;;12.57;;
37595;SDS011;23442;48.182;11.552;2022-07-22T02:38:09;22.70;;;12.35;;
37595;SDS011;23442;48.182;11.552;2022-07-22T02:40:36;23.45;;;12.27;;
37595;SDS011;23442;48.182;11.552;2022-07-22T02:43:02;29.17;;;13.50;;
37595;SDS011;23442;48.182;11.552;2022-07-22T02:45:31;18.70;;;10.82;;
37595;SDS011;23442;48.182;11.552;2022-07-22T02:48:00;23.42;;;12.60;;
37595;SDS011;23442;48.182;11.552;2022-07-22T02:50:26;28.33;;;13.20;;
37595;SDS011;23442;48.182;11.552;2022-07-22T02:52:52;20.20;;;11.43;;
37595;SDS011;23442;48.182;11.552;2022-07-22T02:55:19;18.88;;;11.60;;
37595;SDS011;23442;48.182;11.552;2022-07-22T02:57:45;24.35;;;12.93;;
37595;SDS011;23442;48.182;11.552;2022-07-22T03:00:12;24.55;;;12.93;;
37595;SDS011;23442;48.182;11.552;2022-07-22T03:02:38;20.15;;;12.02;;
37595;SDS011;23442;48.182;11.552;2022-07-22T03:05:05;26.50;;;12.23;;
37595;SDS011;23442;48.182;11.552;2022-07-22T03:07:31;24.00;;;12.43;;
37595;SDS011;23442;48.182;11.552;2022-07-22T03:09:57;26.13;;;12.80;;
37595;SDS011;23442;48.182;11.552;2022-07-22T03:12:24;20.80;;;12.32;;
37595;SDS011;23442;48.182;11.552;2022-07-22T03:14:50;30.00;;;13.82;;
37595;SDS011;23442;48.182;11.552;2022-07-22T03:17:16;23.75;;;12.35;;
37595;SDS011;23442;48.182;11.552;2022-07-22T03:19:42;29.92;;;13.65;;
37595;SDS011;23442;48.182;11.552;2022-07-22T03:22:09;30.02;;;13.32;;
37595;SDS011;23442;48.182;11.552;2022-07-22T03:24:35;26.23;;;13.00;;
37595;SDS011;23442;48.182;11.552;2022-07-22T03:27:01;30.85;;;14.02;;
37595;SDS011;23442;48.182;11.552;2022-07-22T03:29:27;23.73;;;12.40;;
37595;SDS011;23442;48.182;11.552;2022-07-22T03:31:53;24.73;;;13.02;;
37595;SDS011;23442;48.182;11.552;2022-07-22T03:34:20;26.05;;;12.95;;
37595;SDS011;23442;48.182;11.552;2022-07-22T03:36:46;32.95;;;13.73;;
37595;SDS011;23442;48.182;11.552;2022-07-22T03:39:12;23.15;;;13.07;;
37595;SDS011;23442;48.182;11.552;2022-07-22T03:41:38;25.48;;;12.88;;
37595;SDS011;23442;48.182;11.552;2022-07-22T03:44:04;22.85;;;13.23;;
37595;SDS011;23442;48.182;11.552;2022-07-22T03:46:30;23.17;;;12.32;;
37595;SDS011;23442;48.182;11.552;2022-07-22T03:48:56;29.45;;;13.50;;
37595;SDS011;23442;48.182;11.552;2022-07-22T03:51:22;22.77;;;13.32;;
37595;SDS011;23442;48.182;11.552;2022-07-22T03:53:48;21.88;;;12.68;;
37595;SDS011;23442;48.182;11.552;2022-07-22T03:56:14;28.20;;;13.93;;
37595;SDS011;23442;48.182;11.552;2022-07-22T03:58:41;35.78;;;15.55;;
37595;SDS011;23442;48.182;11.552;2022-07-22T04:01:07;30.23;;;15.05;;
37595;SDS011;23442;48.182;11.552;2022-07-22T04:03:33;29.08;;;13.45;;
37595;SDS011;23442;48.182;11.552;2022-07-22T04:05:59;34.22;;;16.13;;
37595;SDS011;23442;48.182;11.552;2022-07-22T04:08:25;21.50;;;12.98;;
37595;SDS011;23442;48.182;11.552;2022-07-22T04:10:51;22.15;;;12.63;;
37595;SDS011;23442;48.182;11.552;2022-07-22T04:13:17;20.67;;;12.88;;
37595;SDS011;23442;48.182;11.552;2022-07-22T04:15:43;21.27;;;12.82;;
37595;SDS011;23442;48.182;11.552;2022-07-22T04:18:10;27.80;;;14.13;;
37595;SDS011;23442;48.182;11.552;2022-07-22T04:20:36;27.67;;;15.07;;
37595;SDS011;23442;48.182;11.552;2022-07-22T04:23:02;26.98;;;14.18;;
37595;SDS011;23442;48.182;11.552;2022-07-22T04:25:28;31.45;;;14.82;;
37595;SDS011;23442;48.182;11.552;2022-07-22T04:27:54;30.60;;;14.85;;
37595;SDS011;23442;48.182;11.552;2022-07-22T04:30:21;27.90;;;14.68;;
37595;SDS011;23442;48.182;11.552;2022-07-22T04:32:47;28.65;;;14.15;;
37595;SDS011;23442;48.182;11.552;2022-07-22T04:35:13;56.35;;;18.40;;
37595;SDS011;23442;48.182;11.552;2022-07-22T04:37:39;34.15;;;15.10;;
37595;SDS011;23442;48.182;11.552;2022-07-22T04:40:06;34.05;;;15.10;;
37595;SDS011;23442;48.182;11.552;2022-07-22T04:42:33;37.50;;;15.75;;
37595;SDS011;23442;48.182;11.552;2022-07-22T04:44:59;31.13;;;14.48;;
37595;SDS011;23442;48.182;11.552;2022-07-22T04:47:25;29.42;;;14.25;;
37595;SDS011;23442;48.182;11.552;2022-07-22T04:49:51;37.30;;;15.73;;
37595;SDS011;23442;48.182;11.552;2022-07-22T04:52:18;26.77;;;14.25;;
37595;SDS011;23442;48.182;11.552;2022-07-22T04:54:44;24.30;;;13.50;;
37595;SDS011;23442;48.182;11.552;2022-07-22T04:57:10;34.72;;;16.45;;
37595;SDS011;23442;48.182;11.552;2022-07-22T04:59:36;37.85;;;16.35;;
37595;SDS011;23442;48.182;11.552;2022-07-22T05:02:02;32.97;;;15.10;;
37595;SDS011;23442;48.182;11.552;2022-07-22T05:04:28;31.73;;;15.30;;
37595;SDS011;23442;48.182;11.552;2022-07-22T05:06:55;40.38;;;17.23;;
37595;SDS011;23442;48.182;11.552;2022-07-22T05:09:21;29.20;;;14.73;;
37595;SDS011;23442;48.182;11.552;2022-07-22T05:11:47;36.22;;;16.40;;
37595;SDS011;23442;48.182;11.552;2022-07-22T05:14:13;33.15;;;16.00;;
37595;SDS011;23442;48.182;11.552;2022-07-22T05:16:39;37.72;;;16.27;;
37595;SDS011;23442;48.182;11.552;2022-07-22T05:19:05;39.30;;;16.75;;
37595;SDS011;23442;48.182;11.552;2022-07-22T05:21:32;44.00;;;18.13;;
37595;SDS011;23442;48.182;11.552;2022-07-22T05:23:58;31.83;;;15.85;;
37595;SDS011;23442;48.182;11.552;2022-07-22T05:26:24;30.30;;;14.93;;
37595;SDS011;23442;48.182;11.552;2022-07-22T05:28:53;31.65;;;15.52;;
37595;SDS011;23442;48.182;11.552;2022-07-22T05:31:19;29.77;;;14.35;;
37595;SDS011;23442;48.182;11.552;2022-07-22T05:33:46;27.30;;;14.63;;
37595;SDS011;23442;48.182;11.552;2022-07-22T05:36:15;29.27;;;14.75;;
37595;SDS011;23442;48.182;11.552;2022-07-22T05:38:41;25.67;;;14.00;;
37595;SDS011;23442;48.182;11.552;2022-07-22T05:41:07;32.78;;;15.18;;
37595;SDS011;23442;48.182;11.552;2022-07-22T05:43:33;25.00;;;13.27;;
37595;SDS011;23442;48.182;11.552;2022-07-22T05:45:59;35.67;;;15.98;;
37595;SDS011;23442;48.182;11.552;2022-07-22T05:48:28;27.67;;;14.32;;
37595;SDS011;23442;48.182;11.552;2022-07-22T05:50:55;39.08;;;17.48;;
37595;SDS011;23442;48.182;11.552;2022-07-22T05:53:21;25.95;;;13.60;;
37595;SDS011;23442;48.182;11.552;2022-07-22T05:55:47;24.52;;;14.02;;
37595;SDS011;23442;48.182;11.552;2022-07-22T05:58:14;26.70;;;14.05;;
37595;SDS011;23442;48.182;11.552;2022-07-22T06:00:40;32.90;;;14.98;;
37595;SDS011;23442;48.182;11.552;2022-07-22T06:03:06;29.75;;;15.45;;
37595;SDS011;23442;48.182;11.552;2022-07-22T06:05:33;24.20;;;13.70;;
37595;SDS011;23442;48.182;11.552;2022-07-22T06:08:00;31.05;;;14.70;;
37595;SDS011;23442;48.182;11.552;2022-07-22T06:10:27;35.13;;;14.80;;
37595;SDS011;23442;48.182;11.552;2022-07-22T06:12:53;31.15;;;15.80;;
37595;SDS011;23442;48.182;11.552;2022-07-22T06:15:19;33.42;;;15.50;;
37595;SDS011;23442;48.182;11.552;2022-07-22T06:17:45;28.95;;;15.43;;
37595;SDS011;23442;48.182;11.552;2022-07-22T06:20:11;26.75;;;15.35;;
37595;SDS011;23442;48.182;11.552;2022-07-22T06:22:39;29.77;;;15.52;;
37595;SDS011;23442;48.182;11.552;2022-07-22T06:25:06;30.63;;;15.65;;
37595;SDS011;23442;48.182;11.552;2022-07-22T06:27:33;29.83;;;15.82;;
37595;SDS011;23442;48.182;11.552;2022-07-22T06:29:59;33.28;;;15.57;;
37595;SDS011;23442;48.182;11.552;2022-07-22T06:32:26;27.63;;;14.55;;
37595;SDS011;23442;48.182;11.552;2022-07-22T06:34:52;28.98;;;16.70;;
37595;SDS011;23442;48.182;11.552;2022-07-22T06:37:18;32.97;;;16.58;;
37595;SDS011;23442;48.182;11.552;2022-07-22T06:39:44;37.88;;;21.13;;
37595;SDS011;23442;48.182;11.552;2022-07-22T06:42:11;33.70;;;19.33;;
37595;SDS011;23442;48.182;11.552;2022-07-22T06:44:38;36.10;;;17.58;;
37595;SDS011;23442;48.182;11.552;2022-07-22T06:47:04;38.67;;;17.65;;
37595;SDS011;23442;48.182;11.552;2022-07-22T06:49:30;35.47;;;17.95;;
37595;SDS011;23442;48.182;11.552;2022-07-22T06:51:56;33.35;;;17.75;;
37595;SDS011;23442;48.182;11.552;2022-07-22T06:54:22;33.88;;;18.02;;
37595;SDS011;23442;48.182;11.552;2022-07-22T06:56:48;28.83;;;16.75;;
37595;SDS011;23442;48.182;11.552;2022-07-22T06:59:15;37.22;;;18.23;;
37595;SDS011;23442;48.182;11.552;2022-07-22T07:01:41;32.88;;;17.67;;
37595;SDS011;23442;48.182;11.552;2022-07-22T07:04:08;36.60;;;17.83;;
37595;SDS011;23442;48.182;11.552;2022-07-22T07:06:34;35.33;;;17.40;;
37595;SDS011;23442;48.182;11.552;2022-07-22T07:09:00;33.72;;;16.88;;
37595;SDS011;23442;48.182;11.552;2022-07-22T07:11:26;31.00;;;15.63;;
37595;SDS011;23442;48.182;11.552;2022-07-22T07:13:53;33.35;;;15.75;;
37595;SDS011;23442;48.182;11.552;2022-07-22T07:16:19;34.10;;;16.55;;
37595;SDS011;23442;48.182;11.552;2022-07-22T07:18:45;39.10;;;16.88;;
37595;SDS011;23442;48.182;11.552;2022-07-22T07:21:11;22.52;;;14.65;;
37595;SDS011;23442;48.182;11.552;2022-07-22T07:23:38;38.85;;;19.85;;
37595;SDS011;23442;48.182;11.552;2022-07-22T07:26:04;43.78;;;18.08;;
37595;SDS011;23442;48.182;11.552;2022-07-22T07:28:30;33.75;;;16.10;;
37595;SDS011;23442;48.182;11.552;2022-07-22T07:30:57;31.63;;;15.48;;
37595;SDS011;23442;48.182;11.552;2022-07-22T07:33:23;32.60;;;17.17;;
37595;SDS011;23442;48.182;11.552;2022-07-22T07:35:49;34.63;;;16.35;;
37595;SDS011;23442;48.182;11.552;2022-07-22T07:38:15;29.38;;;14.05;;
37595;SDS011;23442;48.182;11.552;2022-07-22T07:40:42;34.75;;;14.80;;
37595;SDS011;23442;48.182;11.552;2022-07-22T07:43:08;30.45;;;13.00;;
37595;SDS011;23442;48.182;11.552;2022-07-22T07:45:34;29.52;;;13.98;;
37595;SDS011;23442;48.182;11.552;2022-07-22T07:48:01;25.92;;;14.13;;
37595;SDS011;23442;48.182;11.552;2022-07-22T07:50:28;35.22;;;19.95;;
37595;SDS011;23442;48.182;11.552;2022-07-22T07:52:54;35.55;;;17.33;;
37595;SDS011;23442;48.182;11.552;2022-07-22T07:55:21;27.27;;;16.05;;
37595;SDS011;23442;48.182;11.552;2022-07-22T07:57:47;26.80;;;13.40;;
37595;SDS011;23442;48.182;11.552;2022-07-22T08:00:15;29.17;;;13.93;;
37595;SDS011;23442;48.182;11.552;2022-07-22T08:02:42;31.20;;;14.85;;
37595;SDS011;23442;48.182;11.552;2022-07-22T08:05:09;26.65;;;13.60;;
37595;SDS011;23442;48.182;11.552;2022-07-22T08:07:35;26.90;;;13.90;;
37595;SDS011;23442;48.182;11.552;2022-07-22T08:10:02;24.98;;;13.00;;
37595;SDS011;23442;48.182;11.552;2022-07-22T08:12:32;28.38;;;13.18;;
37595;SDS011;23442;48.182;11.552;2022-07-22T08:14:59;34.72;;;14.57;;
37595;SDS011;23442;48.182;11.552;2022-07-22T08:17:25;24.02;;;12.48;;
37595;SDS011;23442;48.182;11.552;2022-07-22T08:19:51;36.22;;;13.90;;
37595;SDS011;23442;48.182;11.552;2022-07-22T08:22:17;33.65;;;14.60;;
37595;SDS011;23442;48.182;11.552;2022-07-22T08:24:43;24.67;;;12.13;;
37595;SDS011;23442;48.182;11.552;2022-07-22T08:27:09;22.77;;;12.05;;
37595;SDS011;23442;48.182;11.552;2022-07-22T08:29:35;33.90;;;14.98;;
37595;SDS011;23442;48.182;11.552;2022-07-22T08:32:02;28.60;;;13.18;;
37595;SDS011;23442;48.182;11.552;2022-07-22T08:34:28;24.77;;;13.38;;
37595;SDS011;23442;48.182;11.552;2022-07-22T08:36:54;33.65;;;14.30;;
37595;SDS011;23442;48.182;11.552;2022-07-22T08:39:20;28.02;;;13.70;;
37595;SDS011;23442;48.182;11.552;2022-07-22T08:41:46;27.52;;;12.50;;
37595;SDS011;23442;48.182;11.552;2022-07-22T08:44:13;27.13;;;12.77;;
37595;SDS011;23442;48.182;11.552;2022-07-22T08:46:39;28.90;;;12.63;;
37595;SDS011;23442;48.182;11.552;2022-07-22T08:49:05;28.92;;;13.38;;
37595;SDS011;23442;48.182;11.552;2022-07-22T08:51:31;28.73;;;13.90;;
37595;SDS011;23442;48.182;11.552;2022-07-22T08:53:58;33.72;;;13.93;;
37595;SDS011;23442;48.182;11.552;2022-07-22T08:56:24;29.77;;;13.25;;
37595;SDS011;23442;48.182;11.552;2022-07-22T08:58:50;30.73;;;13.77;;
37595;SDS011;23442;48.182;11.552;2022-07-22T09:01:16;23.88;;;12.63;;
37595;SDS011;23442;48.182;11.552;2022-07-22T09:03:55;33.75;;;13.57;;
37595;SDS011;23442;48.182;11.552;2022-07-22T09:06:24;26.92;;;14.98;;
37595;SDS011;23442;48.182;11.552;2022-07-22T09:11:30;24.65;;;13.80;;
37595;SDS011;23442;48.182;11.552;2022-07-22T09:13:57;25.77;;;12.57;;
37595;SDS011;23442;48.182;11.552;2022-07-22T09:16:38;22.13;;;11.40;;
37595;SDS011;23442;48.182;11.552;2022-07-22T09:19:06;21.88;;;11.95;;
37595;SDS011;23442;48.182;11.552;2022-07-22T09:21:34;23.73;;;12.35;;
37595;SDS011;23442;48.182;11.552;2022-07-22T09:24:02;23.38;;;11.15;;
37595;SDS011;23442;48.182;11.552;2022-07-22T09:26:38;22.17;;;11.60;;
37595;SDS011;23442;48.182;11.552;2022-07-22T09:29:05;23.80;;;12.07;;
37595;SDS011;23442;48.182;11.552;2022-07-22T09:31:33;25.17;;;12.95;;
37595;SDS011;23442;48.182;11.552;2022-07-22T09:34:00;20.77;;;11.05;;
37595;SDS011;23442;48.182;11.552;2022-07-22T09:36:27;26.75;;;11.90;;
37595;SDS011;23442;48.182;11.552;2022-07-22T09:38:53;23.50;;;11.63;;
37595;SDS011;23442;48.182;11.552;2022-07-22T09:41:20;20.40;;;11.25;;
37595;SDS011;23442;48.182;11.552;2022-07-22T09:43:46;25.67;;;11.57;;
37595;SDS011;23442;48.182;11.552;2022-07-22T09:46:13;25.17;;;10.63;;
37595;SDS011;23442;48.182;11.552;2022-07-22T09:48:39;30.48;;;12.60;;
37595;SDS011;23442;48.182;11.552;2022-07-22T09:51:06;22.30;;;11.20;;
37595;SDS011;23442;48.182;11.552;2022-07-22T09:53:32;38.55;;;12.88;;
37595;SDS011;23442;48.182;11.552;2022-07-22T09:55:59;29.98;;;12.13;;
37595;SDS011;23442;48.182;11.552;2022-07-22T09:58:29;32.55;;;13.02;;
37595;SDS011;23442;48.182;11.552;2022-07-22T10:00:58;27.95;;;11.30;;
37595;SDS011;23442;48.182;11.552;2022-07-22T10:03:26;26.48;;;10.63;;
37595;SDS011;23442;48.182;11.552;2022-07-22T10:05:53;29.35;;;11.88;;
37595;SDS011;23442;48.182;11.552;2022-07-22T10:08:20;25.25;;;10.88;;
37595;SDS011;23442;48.182;11.552;2022-07-22T10:10:46;30.33;;;14.45;;
37595;SDS011;23442;48.182;11.552;2022-07-22T10:13:13;29.02;;;12.15;;
37595;SDS011;23442;48.182;11.552;2022-07-22T10:15:40;28.08;;;12.25;;
37595;SDS011;23442;48.182;11.552;2022-07-22T10:18:13;25.70;;;12.43;;
37595;SDS011;23442;48.182;11.552;2022-07-22T10:20:41;29.75;;;13.30;;
37595;SDS011;23442;48.182;11.552;2022-07-22T10:23:08;26.48;;;11.85;;
37595;SDS011;23442;48.182;11.552;2022-07-22T10:25:52;28.58;;;11.68;;
37595;SDS011;23442;48.182;11.552;2022-07-22T10:28:20;22.10;;;11.25;;
37595;SDS011;23442;48.182;11.552;2022-07-22T10:30:47;26.75;;;11.95;;
37595;SDS011;23442;48.182;11.552;2022-07-22T10:33:14;28.95;;;12.55;;
37595;SDS011;23442;48.182;11.552;2022-07-22T10:38:09;29.50;;;12.52;;
37595;SDS011;23442;48.182;11.552;2022-07-22T10:43:14;31.25;;;12.77;;
37595;SDS011;23442;48.182;11.552;2022-07-22T10:45:42;44.03;;;15.95;;
37595;SDS011;23442;48.182;11.552;2022-07-22T10:48:16;34.17;;;12.93;;
37595;SDS011;23442;48.182;11.552;2022-07-22T10:50:47;21.90;;;11.13;;
37595;SDS011;23442;48.182;11.552;2022-07-22T10:53:16;28.98;;;11.50;;
37595;SDS011;23442;48.182;11.552;2022-07-22T10:55:57;42.75;;;14.27;;
37595;SDS011;23442;48.182;11.552;2022-07-22T11:01:01;29.10;;;12.05;;
37595;SDS011;23442;48.182;11.552;2022-07-22T11:03:29;29.52;;;12.25;;
37595;SDS011;23442;48.182;11.552;2022-07-22T11:05:56;37.63;;;14.45;;
37595;SDS011;23442;48.182;11.552;2022-07-22T11:08:24;27.30;;;12.20;;
37595;SDS011;23442;48.182;11.552;2022-07-22T11:10:51;24.08;;;11.48;;
37595;SDS011;23442;48.182;11.552;2022-07-22T11:13:30;34.25;;;12.85;;
37595;SDS011;23442;48.182;11.552;2022-07-22T11:16:12;34.33;;;14.15;;
37595;SDS011;23442;48.182;11.552;2022-07-22T11:18:56;26.35;;;11.18;;
37595;SDS011;23442;48.182;11.552;2022-07-22T11:21:28;25.23;;;11.57;;
37595;SDS011;23442;48.182;11.552;2022-07-22T11:23:57;25.77;;;11.68;;
37595;SDS011;23442;48.182;11.552;2022-07-22T11:26:37;23.38;;;10.90;;
37595;SDS011;23442;48.182;11.552;2022-07-22T11:29:06;25.85;;;10.80;;
37595;SDS011;23442;48.182;11.552;2022-07-22T11:31:37;32.28;;;12.80;;
37595;SDS011;23442;48.182;11.552;2022-07-22T11:34:11;27.05;;;12.43;;
37595;SDS011;23442;48.182;11.552;2022-07-22T11:36:40;31.10;;;13.45;;
37595;SDS011;23442;48.182;11.552;2022-07-22T11:39:08;24.63;;;12.80;;
37595;SDS011;23442;48.182;11.552;2022-07-22T11:41:35;31.85;;;12.30;;
37595;SDS011;23442;48.182;11.552;2022-07-22T11:44:01;23.30;;;13.20;;
37595;SDS011;23442;48.182;11.552;2022-07-22T11:46:28;23.95;;;12.15;;
37595;SDS011;23442;48.182;11.552;2022-07-22T11:49:04;32.92;;;12.60;;
37595;SDS011;23442;48.182;11.552;2022-07-22T11:51:31;27.30;;;11.27;;
37595;SDS011;23442;48.182;11.552;2022-07-22T11:54:09;25.63;;;11.70;;
37595;SDS011;23442;48.182;11.552;2022-07-22T11:56:36;29.30;;;12.77;;
37595;SDS011;23442;48.182;11.552;2022-07-22T11:59:03;28.38;;;11.65;;
37595;SDS011;23442;48.182;11.552;2022-07-22T12:01:30;24.75;;;11.20;;
37595;SDS011;23442;48.182;11.552;2022-07-22T12:04:04;21.58;;;11.55;;
37595;SDS011;23442;48.182;11.552;2022-07-22T12:06:33;22.85;;;11.98;;
37595;SDS011;23442;48.182;11.552;2022-07-22T12:11:41;26.48;;;11.90;;
37595;SDS011;23442;48.182;11.552;2022-07-22T12:14:13;34.15;;;13.55;;
37595;SDS011;23442;48.182;11.552;2022-07-22T12:16:41;26.67;;;14.65;;
37595;SDS011;23442;48.182;11.552;2022-07-22T12:19:10;24.98;;;12.20;;
37595;SDS011;23442;48.182;11.552;2022-07-22T12:21:53;26.08;;;12.88;;
37595;SDS011;23442;48.182;11.552;2022-07-22T12:24:27;27.02;;;13.95;;
37595;SDS011;23442;48.182;11.552;2022-07-22T12:26:55;27.92;;;12.70;;
37595;SDS011;23442;48.182;11.552;2022-07-22T12:29:23;26.73;;;11.75;;
37595;SDS011;23442;48.182;11.552;2022-07-22T12:31:52;27.00;;;12.63;;
37595;SDS011;23442;48.182;11.552;2022-07-22T12:34:28;29.45;;;13.05;;
37595;SDS011;23442;48.182;11.552;2022-07-22T12:36:57;27.00;;;12.57;;
37595;SDS011;23442;48.182;11.552;2022-07-22T12:39:24;23.83;;;11.30;;
37595;SDS011;23442;48.182;11.552;2022-07-22T12:41:51;22.70;;;10.73;;
37595;SDS011;23442;48.182;11.552;2022-07-22T12:44:19;22.38;;;11.38;;
37595;SDS011;23442;48.182;11.552;2022-07-22T12:46:48;27.83;;;12.38;;
37595;SDS011;23442;48.182;11.552;2022-07-22T12:49:16;24.23;;;11.70;;
37595;SDS011;23442;48.182;11.552;2022-07-22T12:54:33;29.52;;;11.77;;
37595;SDS011;23442;48.182;11.552;2022-07-22T12:56:59;24.65;;;11.57;;
37595;SDS011;23442;48.182;11.552;2022-07-22T12:59:26;29.02;;;12.95;;
37595;SDS011;23442;48.182;11.552;2022-07-22T13:01:52;22.65;;;11.70;;
37595;SDS011;23442;48.182;11.552;2022-07-22T13:04:18;25.90;;;12.68;;
37595;SDS011;23442;48.182;11.552;2022-07-22T13:06:44;29.95;;;13.27;;
37595;SDS011;23442;48.182;11.552;2022-07-22T13:09:10;32.35;;;12.93;;
37595;SDS011;23442;48.182;11.552;2022-07-22T13:11:37;23.42;;;11.98;;
37595;SDS011;23442;48.182;11.552;2022-07-22T13:14:08;34.13;;;13.70;;
37595;SDS011;23442;48.182;11.552;2022-07-22T13:16:38;23.95;;;12.57;;
37595;SDS011;23442;48.182;11.552;2022-07-22T13:19:04;24.75;;;11.98;;
37595;SDS011;23442;48.182;11.552;2022-07-22T13:21:31;21.60;;;11.80;;
37595;SDS011;23442;48.182;11.552;2022-07-22T13:24:00;30.17;;;12.77;;
37595;SDS011;23442;48.182;11.552;2022-07-22T13:26:27;30.10;;;12.65;;
37595;SDS011;23442;48.182;11.552;2022-07-22T13:28:53;34.53;;;13.43;;
37595;SDS011;23442;48.182;11.552;2022-07-22T13:31:20;38.17;;;13.65;;
37595;SDS011;23442;48.182;11.552;2022-07-22T13:33:46;33.30;;;12.68;;
37595;SDS011;23442;48.182;11.552;2022-07-22T13:36:12;30.35;;;12.50;;
37595;SDS011;23442;48.182;11.552;2022-07-22T13:38:38;24.33;;;11.65;;
37595;SDS011;23442;48.182;11.552;2022-07-22T13:41:04;27.35;;;12.32;;
37595;SDS011;23442;48.182;11.552;2022-07-22T13:43:41;29.70;;;12.80;;
37595;SDS011;23442;48.182;11.552;2022-07-22T13:46:08;27.98;;;12.32;;
37595;SDS011;23442;48.182;11.552;2022-07-22T13:48:34;28.80;;;12.25;;
37595;SDS011;23442;48.182;11.552;2022-07-22T13:51:00;31.27;;;13.30;;
37595;SDS011;23442;48.182;11.552;2022-07-22T13:53:26;34.10;;;13.80;;
37595;SDS011;23442;48.182;11.552;2022-07-22T13:55:52;40.00;;;15.30;;
37595;SDS011;23442;48.182;11.552;2022-07-22T13:58:18;23.77;;;11.70;;
37595;SDS011;23442;48.182;11.552;2022-07-22T14:00:44;33.45;;;14.27;;
37595;SDS011;23442;48.182;11.552;2022-07-22T14:03:10;36.78;;;14.23;;
37595;SDS011;23442;48.182;11.552;2022-07-22T14:05:37;24.38;;;11.43;;
37595;SDS011;23442;48.182;11.552;2022-07-22T14:08:03;27.98;;;12.35;;
37595;SDS011;23442;48.182;11.552;2022-07-22T14:10:29;31.27;;;12.45;;
37595;SDS011;23442;48.182;11.552;2022-07-22T14:12:55;24.15;;;11.73;;
37595;SDS011;23442;48.182;11.552;2022-07-22T14:15:21;33.47;;;13.07;;
37595;SDS011;23442;48.182;11.552;2022-07-22T14:17:48;24.15;;;12.50;;
37595;SDS011;23442;48.182;11.552;2022-07-22T14:20:14;20.17;;;11.40;;
37595;SDS011;23442;48.182;11.552;2022-07-22T14:22:40;21.58;;;12.32;;
37595;SDS011;23442;48.182;11.552;2022-07-22T14:25:06;30.33;;;13.07;;